createdAt,value
2018-12-17T00:02:03.374Z,98.27
2018-12-17T00:04:32.849Z,94.10
2018-12-17T00:07:01.622Z,101.47
2018-12-17T00:09:30.431Z,103.30
2018-12-17T00:11:59.300Z,91.10
2018-12-17T00:14:28.075Z,94.80
2018-12-17T00:16:57.072Z,92.47
2018-12-17T00:19:25.698Z,82.23
2018-12-17T00:21:54.555Z,86.47
2018-12-17T00:24:23.369Z,80.67
2018-12-17T00:26:51.978Z,87.20
2018-12-17T00:29:20.767Z,79.70
2018-12-17T00:31:49.367Z,76.60
2018-12-17T00:34:18.059Z,75.67
2018-12-17T00:36:46.694Z,76.57
2018-12-17T00:39:15.363Z,76.03
2018-12-17T00:41:44.016Z,71.67
2018-12-17T00:44:12.729Z,63.50
2018-12-17T00:46:41.406Z,74.97
2018-12-17T00:49:10.106Z,69.47
2018-12-17T00:51:38.730Z,61.47
2018-12-17T00:54:07.478Z,70.97
2018-12-17T00:56:36.509Z,62.97
2018-12-17T00:59:05.192Z,66.10
2018-12-17T01:01:34.063Z,68.17
2018-12-17T01:04:02.725Z,67.27
2018-12-17T01:06:31.496Z,76.23
2018-12-17T01:09:00.062Z,67.37
2018-12-17T01:11:31.047Z,64.67
2018-12-17T01:14:02.154Z,62.57
2018-12-17T01:16:31.744Z,62.37
2018-12-17T01:19:01.890Z,56.53
2018-12-17T01:21:31.131Z,65.20
2018-12-17T01:24:00.684Z,62.60
2018-12-17T01:26:30.864Z,56.63
2018-12-17T01:28:59.526Z,53.57
2018-12-17T01:31:28.541Z,60.17
2018-12-17T01:33:57.229Z,61.13
2018-12-17T01:36:28.269Z,65.60
2018-12-17T01:38:59.185Z,63.13
2018-12-17T01:41:29.291Z,55.03
2018-12-17T01:43:59.122Z,53.93
2018-12-17T01:46:28.327Z,54.93
2018-12-17T01:48:57.600Z,57.83
2018-12-17T01:51:28.789Z,60.20
2018-12-17T01:53:58.081Z,59.13
2018-12-17T01:56:29.003Z,59.37
2018-12-17T01:59:01.663Z,52.07
2018-12-17T02:01:32.143Z,55.97
2018-12-17T02:24:09.003Z,64.57
2018-12-17T02:26:38.482Z,64.77
2018-12-17T02:29:07.858Z,62.03
2018-12-17T02:31:39.967Z,61.17
2018-12-17T02:34:08.586Z,58.60
2018-12-17T02:36:37.241Z,60.87
2018-12-17T02:39:07.997Z,55.97
2018-12-17T02:41:36.499Z,61.43
2018-12-17T02:44:05.448Z,75.27
2018-12-17T02:46:34.056Z,61.50
2018-12-17T02:49:02.594Z,62.00
2018-12-17T02:51:31.245Z,60.13
2018-12-17T02:53:59.983Z,56.07
2018-12-17T02:56:28.621Z,58.03
2018-12-17T02:58:57.283Z,65.93
2018-12-17T03:01:25.851Z,61.70
2018-12-17T03:03:54.411Z,65.13
2018-12-17T03:06:23.147Z,64.20
2018-12-17T03:08:51.690Z,60.80
2018-12-17T03:11:20.380Z,63.60
2018-12-17T03:13:48.927Z,60.47
2018-12-17T03:16:17.471Z,61.43
2018-12-17T03:18:45.997Z,54.10
2018-12-17T03:21:14.499Z,57.50
2018-12-17T03:23:43.105Z,60.77
2018-12-17T03:26:11.784Z,55.67
2018-12-17T03:28:40.378Z,57.13
2018-12-17T03:31:09.011Z,60.93
2018-12-17T03:33:37.600Z,64.77
2018-12-17T03:36:06.219Z,71.13
2018-12-17T03:38:37.834Z,57.47
2018-12-17T03:41:06.541Z,61.00
2018-12-17T03:43:35.120Z,59.43
2018-12-17T03:46:03.766Z,56.80
2018-12-17T03:48:32.393Z,59.00
2018-12-17T03:51:00.977Z,50.73
2018-12-17T03:53:29.574Z,50.13
2018-12-17T03:55:58.108Z,49.03
2018-12-17T03:58:26.806Z,56.00
2018-12-17T04:00:55.366Z,57.43
2018-12-17T04:03:24.057Z,59.93
2018-12-17T04:05:52.646Z,67.33
2018-12-17T04:08:21.306Z,57.30
2018-12-17T04:10:49.828Z,55.67
2018-12-17T04:13:18.427Z,49.53
2018-12-17T04:15:46.987Z,53.00
2018-12-17T04:18:15.529Z,51.87
2018-12-17T04:20:44.100Z,59.63
2018-12-17T04:23:12.904Z,67.87
2018-12-17T04:25:41.414Z,67.17
2018-12-17T04:28:11.040Z,71.27
2018-12-17T04:30:39.716Z,73.90
2018-12-17T04:33:08.270Z,97.20
2018-12-17T04:35:36.830Z,79.43
2018-12-17T04:38:05.456Z,93.07
2018-12-17T04:40:34.052Z,80.43
2018-12-17T04:43:02.591Z,84.13
2018-12-17T04:45:31.238Z,126.60
2018-12-17T04:47:59.836Z,89.53
2018-12-17T04:50:28.468Z,92.77
2018-12-17T04:52:56.984Z,90.30
2018-12-17T04:55:25.550Z,92.57
2018-12-17T04:57:54.575Z,89.77
2018-12-17T05:00:23.302Z,90.97
2018-12-17T05:02:51.861Z,80.43
2018-12-17T05:05:20.631Z,102.93
2018-12-17T05:07:49.226Z,90.03
2018-12-17T05:10:24.410Z,100.63
2018-12-17T05:12:52.997Z,90.67
2018-12-17T05:15:21.627Z,88.97
2018-12-17T05:17:50.251Z,82.47
2018-12-17T05:20:18.830Z,84.73
2018-12-17T05:22:47.452Z,86.87
2018-12-17T05:25:16.094Z,93.70
2018-12-17T05:27:44.660Z,88.10
2018-12-17T05:30:13.215Z,95.97
2018-12-17T05:32:41.855Z,80.47
2018-12-17T05:35:10.490Z,96.77
2018-12-17T05:37:39.022Z,89.93
2018-12-17T05:40:07.775Z,81.37
2018-12-17T05:42:36.338Z,91.07
2018-12-17T05:45:05.504Z,92.77
2018-12-17T05:47:34.200Z,103.37
2018-12-17T05:50:02.751Z,91.20
2018-12-17T05:52:31.279Z,94.27
2018-12-17T05:54:59.911Z,100.00
2018-12-17T05:57:28.451Z,101.57
2018-12-17T05:59:57.010Z,80.50
2018-12-17T06:02:25.550Z,97.17
2018-12-17T06:04:54.101Z,91.23
2018-12-17T06:07:22.646Z,99.57
2018-12-17T06:09:51.177Z,112.03
2018-12-17T06:12:19.740Z,103.20
2018-12-17T06:14:48.258Z,96.20
2018-12-17T06:17:16.847Z,109.83
2018-12-17T06:19:45.552Z,105.53
2018-12-17T06:22:14.150Z,109.47
2018-12-17T06:24:42.731Z,100.70
2018-12-17T06:27:11.318Z,102.63
2018-12-17T06:29:39.890Z,108.77
2018-12-17T06:32:08.430Z,97.97
2018-12-17T06:34:37.013Z,101.57
2018-12-17T06:37:05.588Z,96.57
2018-12-17T06:39:34.156Z,90.70
2018-12-17T06:42:02.686Z,85.90
2018-12-17T06:44:32.006Z,94.40
2018-12-17T06:47:00.547Z,90.43
2018-12-17T06:49:29.150Z,94.40
2018-12-17T06:51:58.112Z,88.67
2018-12-17T06:54:26.885Z,83.90
2018-12-17T06:56:55.465Z,92.97
2018-12-17T06:59:24.007Z,84.67
2018-12-17T07:01:52.976Z,96.60
2018-12-17T07:04:21.533Z,79.27
2018-12-17T07:06:50.088Z,73.63
2018-12-17T07:09:18.711Z,88.92
2018-12-17T07:11:47.278Z,84.93
2018-12-17T07:14:15.977Z,97.15
2018-12-17T07:16:44.526Z,89.50
2018-12-17T07:19:13.408Z,82.30
2018-12-17T07:21:42.165Z,89.00
2018-12-17T07:24:10.815Z,80.17
2018-12-17T07:26:39.363Z,73.57
2018-12-17T07:29:07.885Z,75.50
2018-12-17T07:31:36.407Z,84.10
2018-12-17T07:34:04.983Z,82.37
2018-12-17T07:36:33.616Z,86.50
2018-12-17T07:39:02.622Z,86.63
2018-12-17T07:41:31.218Z,84.63
2018-12-17T07:43:59.977Z,100.50
2018-12-17T07:46:28.514Z,81.87
2018-12-17T07:48:57.034Z,79.67
2018-12-17T07:51:25.675Z,94.50
2018-12-17T07:53:54.242Z,89.80
2018-12-17T07:56:22.763Z,86.67
2018-12-17T07:58:51.670Z,91.30
2018-12-17T08:01:20.264Z,90.50
2018-12-17T08:03:49.138Z,88.20
2018-12-17T08:06:18.174Z,105.70
2018-12-17T08:08:46.783Z,84.63
2018-12-17T08:11:15.348Z,81.97
2018-12-17T08:13:43.975Z,77.23
2018-12-17T08:16:12.594Z,80.70
2018-12-17T08:18:41.340Z,73.87
2018-12-17T08:21:10.988Z,77.17
2018-12-17T08:23:39.567Z,84.62
2018-12-17T08:26:08.220Z,82.43
2018-12-17T08:28:36.945Z,88.80
2018-12-17T08:31:05.665Z,81.53
2018-12-17T08:33:34.427Z,78.23
2018-12-17T08:36:03.189Z,86.77
2018-12-17T08:38:31.947Z,83.87
2018-12-17T08:41:00.627Z,92.95
2018-12-17T08:43:29.185Z,86.70
2018-12-17T08:45:57.778Z,95.10
2018-12-17T08:48:26.407Z,87.80
2018-12-17T08:50:55.113Z,81.83
2018-12-17T08:53:23.794Z,84.40
2018-12-17T08:55:52.545Z,77.67
2018-12-17T08:58:21.342Z,88.47
2018-12-17T09:00:49.991Z,79.70
2018-12-17T09:03:18.957Z,81.50
2018-12-17T09:05:47.848Z,83.17
2018-12-17T09:08:16.426Z,72.73
2018-12-17T09:10:46.236Z,77.80
2018-12-17T09:13:14.786Z,80.50
2018-12-17T09:15:43.440Z,76.37
2018-12-17T09:18:12.012Z,72.17
2018-12-17T09:20:40.671Z,67.20
2018-12-17T09:23:09.242Z,76.00
2018-12-17T09:25:38.301Z,77.03
2018-12-17T09:28:06.840Z,79.13
2018-12-17T09:30:41.266Z,80.07
2018-12-17T09:33:06.013Z,73.63
2018-12-17T09:35:34.620Z,71.60
2018-12-17T09:38:03.197Z,73.60
2018-12-17T09:40:32.322Z,77.77
2018-12-17T09:43:01.052Z,78.10
2018-12-17T09:45:29.669Z,85.63
2018-12-17T09:47:58.296Z,69.57
2018-12-17T09:50:26.971Z,74.10
2018-12-17T09:52:55.561Z,76.87
2018-12-17T09:55:24.123Z,75.63
2018-12-17T09:57:52.726Z,78.03
2018-12-17T10:00:25.338Z,69.10
2018-12-17T10:02:51.828Z,72.10
2018-12-17T10:05:20.472Z,70.87
2018-12-17T10:07:49.003Z,61.37
2018-12-17T10:10:17.659Z,68.83
2018-12-17T10:12:46.595Z,66.07
2018-12-17T10:15:15.646Z,59.03
2018-12-17T10:17:44.410Z,55.40
2018-12-17T10:20:12.973Z,62.10
2018-12-17T10:22:43.377Z,62.03
2018-12-17T10:25:12.171Z,61.93
2018-12-17T10:27:40.780Z,55.17
2018-12-17T10:30:09.595Z,50.37
2018-12-17T10:32:38.174Z,46.50
2018-12-17T10:35:06.856Z,50.37
2018-12-17T10:37:35.700Z,47.23
2018-12-17T10:40:05.099Z,55.07
2018-12-17T10:42:33.822Z,60.07
2018-12-17T10:45:02.465Z,55.23
2018-12-17T10:47:31.115Z,55.33
2018-12-17T10:49:59.812Z,52.33
2018-12-17T10:52:28.545Z,60.23
2018-12-17T10:54:57.186Z,51.33
2018-12-17T10:57:26.050Z,52.93
2018-12-17T10:59:54.858Z,55.97
2018-12-17T11:02:28.529Z,54.13
2018-12-17T11:05:02.444Z,54.97
2018-12-17T11:07:31.054Z,54.90
2018-12-17T11:09:59.763Z,53.80
2018-12-17T11:12:28.391Z,52.77
2018-12-17T11:14:56.881Z,58.13
2018-12-17T11:17:25.437Z,56.27
2018-12-17T11:19:54.023Z,51.10
2018-12-17T11:22:22.725Z,50.80
2018-12-17T11:24:51.279Z,48.97
2018-12-17T11:27:20.059Z,52.70
2018-12-17T11:29:48.915Z,47.90
2018-12-17T11:32:17.593Z,44.47
2018-12-17T11:34:46.209Z,47.17
2018-12-17T11:37:15.150Z,51.43
2018-12-17T11:39:43.816Z,50.10
2018-12-17T11:42:12.419Z,44.87
2018-12-17T11:44:40.969Z,42.83
2018-12-17T11:47:09.537Z,44.87
2018-12-17T11:49:38.193Z,42.27
2018-12-17T11:52:07.088Z,40.30
2018-12-17T11:54:35.701Z,47.77
2018-12-17T11:57:54.934Z,41.83
2018-12-17T12:00:25.699Z,44.47
2018-12-17T12:02:59.144Z,47.10
2018-12-17T12:05:25.177Z,48.17
2018-12-17T12:07:53.746Z,48.17
2018-12-17T12:10:22.335Z,48.70
2018-12-17T12:12:50.888Z,51.00
2018-12-17T12:15:19.412Z,42.77
2018-12-17T12:17:48.192Z,45.03
2018-12-17T12:20:16.790Z,44.00
2018-12-17T12:22:45.411Z,54.70
2018-12-17T12:25:14.401Z,45.53
2018-12-17T12:27:43.068Z,45.90
2018-12-17T12:30:12.032Z,46.07
2018-12-17T12:32:40.818Z,43.17
2018-12-17T12:35:11.433Z,48.53
2018-12-17T12:37:40.497Z,52.37
2018-12-17T12:40:09.572Z,50.60
2018-12-17T12:42:38.105Z,50.97
2018-12-17T12:45:07.638Z,43.73
2018-12-17T12:47:36.615Z,48.43
2018-12-17T12:50:06.635Z,47.33
2018-12-17T12:52:35.218Z,52.27
2018-12-17T12:55:03.985Z,56.00
2018-12-17T12:57:32.486Z,49.10
2018-12-17T13:00:01.046Z,56.20
2018-12-17T13:02:29.644Z,54.07
2018-12-17T13:04:58.275Z,52.43
2018-12-17T13:07:26.820Z,47.73
2018-12-17T13:09:55.341Z,48.33
2018-12-17T13:12:23.880Z,52.73
2018-12-17T13:14:52.506Z,49.27
2018-12-17T13:17:26.523Z,56.37
2018-12-17T13:19:55.126Z,53.37
2018-12-17T13:22:23.918Z,55.90
2018-12-17T13:24:52.431Z,51.00
2018-12-17T13:27:21.064Z,55.67
2018-12-17T13:29:49.629Z,53.70
2018-12-17T13:32:18.175Z,58.43
2018-12-17T13:34:46.920Z,55.47
2018-12-17T13:37:15.583Z,50.10
2018-12-17T13:39:44.103Z,51.43
2018-12-17T13:42:12.757Z,54.90
2018-12-17T13:44:41.436Z,51.47
2018-12-17T13:47:10.063Z,47.83
2018-12-17T13:49:38.612Z,49.70
2018-12-17T13:52:12.429Z,43.07
2018-12-17T13:54:40.975Z,51.03
2018-12-17T13:57:09.618Z,48.97
2018-12-17T13:59:38.254Z,57.90
2018-12-17T14:02:06.855Z,49.23
2018-12-17T14:04:35.438Z,50.57
2018-12-17T14:07:05.085Z,57.27
2018-12-17T14:09:37.906Z,49.83
2018-12-17T14:12:06.423Z,54.03
2018-12-17T14:14:35.011Z,58.55
2018-12-17T14:17:09.121Z,46.80
2018-12-17T14:19:40.031Z,49.03
2018-12-17T14:22:08.615Z,46.93
2018-12-17T14:24:37.674Z,52.93
2018-12-17T14:27:06.404Z,49.47
2018-12-17T14:29:34.967Z,53.40
2018-12-17T14:32:05.188Z,48.10
2018-12-17T14:34:33.960Z,40.03
2018-12-17T14:37:28.319Z,46.43
2018-12-17T14:40:16.346Z,43.20
2018-12-17T14:43:03.165Z,43.20
2018-12-17T14:45:42.967Z,41.60
2018-12-17T14:48:18.650Z,50.58
2018-12-17T14:50:48.306Z,40.00
2018-12-17T14:53:17.213Z,45.47
2018-12-17T14:55:46.642Z,48.23
2018-12-17T14:58:15.674Z,35.23
2018-12-17T15:00:44.509Z,41.60
2018-12-17T15:03:13.226Z,45.77
2018-12-17T15:05:41.992Z,39.90
2018-12-17T15:08:10.943Z,37.10
2018-12-17T15:10:39.776Z,43.60
2018-12-17T15:13:08.478Z,38.40
2018-12-17T15:15:37.226Z,38.73
2018-12-17T15:18:06.074Z,36.03
2018-12-17T15:20:34.996Z,37.07
2018-12-17T15:23:03.645Z,38.83
2018-12-17T15:25:32.366Z,37.20
2018-12-17T15:28:00.990Z,42.03
2018-12-17T15:30:29.789Z,37.30
2018-12-17T15:33:14.328Z,35.73
2018-12-17T15:35:43.147Z,40.83
2018-12-17T15:38:11.787Z,39.83
2018-12-17T15:40:40.515Z,42.67
2018-12-17T15:43:09.311Z,41.17
2018-12-17T15:45:38.264Z,42.80
2018-12-17T15:48:06.896Z,38.20
2018-12-17T15:50:35.528Z,39.47
2018-12-17T15:53:04.251Z,41.67
2018-12-17T15:55:32.926Z,40.03
2018-12-17T15:58:01.691Z,41.23
2018-12-17T16:00:30.316Z,42.33
2018-12-17T16:02:58.999Z,39.53
2018-12-17T16:05:27.902Z,41.77
2018-12-17T16:07:58.324Z,42.70
2018-12-17T16:10:27.458Z,38.07
2018-12-17T16:12:56.117Z,35.07
2018-12-17T16:15:25.382Z,40.37
2018-12-17T16:17:54.095Z,40.40
2018-12-17T16:20:22.739Z,41.13
2018-12-17T16:22:51.327Z,42.30
2018-12-17T16:25:20.140Z,41.30
2018-12-17T16:27:49.042Z,36.23
2018-12-17T16:30:20.665Z,42.40
2018-12-17T16:32:51.580Z,42.33
2018-12-17T16:35:20.354Z,36.53
2018-12-17T16:37:49.386Z,35.13
2018-12-17T16:40:18.321Z,35.33
2018-12-17T16:42:47.347Z,37.00
2018-12-17T16:45:16.163Z,37.47
2018-12-17T16:47:44.784Z,40.20
2018-12-17T16:50:13.473Z,41.88
2018-12-17T16:52:42.111Z,36.77
2018-12-17T16:55:10.731Z,35.50
2018-12-17T16:57:39.303Z,36.57
2018-12-17T17:00:10.047Z,33.80
2018-12-17T17:02:39.048Z,35.50
2018-12-17T17:05:08.577Z,32.47
2018-12-17T17:07:37.922Z,33.40
2018-12-17T17:10:09.212Z,34.83
2018-12-17T17:12:38.087Z,37.30
2018-12-17T17:15:10.214Z,37.03
2018-12-17T17:17:39.813Z,33.67
2018-12-17T17:20:09.807Z,37.13
2018-12-17T17:22:39.442Z,28.03
2018-12-17T17:25:08.870Z,30.57
2018-12-17T17:27:38.348Z,32.17
2018-12-17T17:30:08.621Z,39.20
2018-12-17T17:32:37.584Z,33.43
2018-12-17T17:35:06.730Z,35.30
2018-12-17T17:37:35.546Z,34.43
2018-12-17T17:40:05.343Z,38.93
2018-12-17T17:42:33.974Z,31.93
2018-12-17T17:45:02.766Z,39.90
2018-12-17T17:47:31.567Z,35.77
2018-12-17T17:50:00.548Z,39.27
2018-12-17T17:52:30.291Z,36.17
2018-12-17T17:55:03.057Z,37.00
2018-12-17T17:57:31.940Z,39.13
2018-12-17T18:00:00.621Z,47.78
2018-12-17T18:02:30.481Z,40.40
2018-12-17T18:04:59.219Z,35.03
2018-12-17T18:07:28.016Z,39.60
2018-12-17T18:09:56.770Z,36.90
2018-12-17T18:12:25.343Z,41.67
2018-12-17T18:14:53.963Z,33.70
2018-12-17T18:17:22.586Z,34.23
2018-12-17T18:19:51.694Z,40.43
2018-12-17T18:22:20.310Z,37.77
2018-12-17T18:24:48.972Z,37.60
2018-12-17T18:27:17.840Z,36.97
2018-12-17T18:29:46.922Z,37.20
2018-12-17T18:32:16.330Z,32.20
2018-12-17T18:34:44.992Z,33.90
2018-12-17T18:37:13.574Z,31.30
2018-12-17T18:39:42.452Z,29.03
2018-12-17T18:42:11.130Z,33.77
2018-12-17T18:44:40.436Z,33.63
2018-12-17T18:47:09.351Z,38.50
2018-12-17T18:49:37.994Z,33.13
2018-12-17T18:52:06.785Z,36.63
2018-12-17T18:54:35.473Z,35.23
2018-12-17T18:57:04.236Z,39.15
2018-12-17T18:59:32.913Z,38.27
2018-12-17T19:02:01.643Z,34.30
2018-12-17T19:04:30.391Z,36.87
2018-12-17T19:06:59.049Z,34.93
2018-12-17T19:09:27.673Z,34.03
2018-12-17T19:11:56.564Z,36.40
2018-12-17T19:14:25.260Z,33.63
2018-12-17T19:16:55.161Z,37.43
2018-12-17T19:19:23.981Z,34.33
2018-12-17T19:21:54.747Z,33.57
2018-12-17T19:24:23.356Z,30.37
2018-12-17T19:26:56.369Z,29.67
2018-12-17T19:29:24.980Z,30.33
2018-12-17T19:31:56.258Z,31.93
2018-12-17T19:34:31.378Z,32.27
2018-12-17T19:37:02.266Z,31.47
2018-12-17T19:39:32.874Z,33.67
2018-12-17T19:42:02.362Z,33.83
2018-12-17T19:44:32.808Z,33.07
2018-12-17T19:47:01.591Z,36.00
2018-12-17T19:49:30.434Z,31.73
2018-12-17T19:52:00.653Z,29.60
2018-12-17T19:54:29.698Z,30.10
2018-12-17T19:56:59.065Z,30.17
2018-12-17T19:59:28.109Z,29.53
2018-12-17T20:01:57.023Z,29.23
2018-12-17T20:04:25.729Z,29.60
2018-12-17T20:06:54.874Z,33.23
2018-12-17T20:09:23.540Z,31.07
2018-12-17T20:11:52.252Z,29.30
2018-12-17T20:14:20.999Z,28.33
2018-12-17T20:16:49.835Z,26.43
2018-12-17T20:19:24.043Z,24.50
2018-12-17T20:21:53.209Z,26.67
2018-12-17T20:24:21.969Z,23.13
2018-12-17T20:26:50.635Z,23.43
2018-12-17T20:29:26.258Z,28.33
2018-12-17T20:31:55.247Z,22.07
2018-12-17T20:34:23.949Z,23.50
2018-12-17T20:36:52.555Z,33.97
2018-12-17T20:39:26.221Z,25.53
2018-12-17T20:41:54.959Z,26.50
2018-12-17T20:44:23.525Z,25.60
2018-12-17T20:46:52.179Z,29.17
2018-12-17T20:49:20.737Z,32.87
2018-12-17T20:51:49.539Z,32.73
2018-12-17T20:54:18.167Z,31.90
2018-12-17T20:56:46.734Z,32.07
2018-12-17T20:59:15.396Z,34.37
2018-12-17T21:01:43.923Z,32.90
2018-12-17T21:04:12.467Z,33.20
2018-12-17T21:06:41.023Z,34.50
2018-12-17T21:09:09.632Z,33.53
2018-12-17T21:11:38.203Z,30.40
2018-12-17T21:14:06.749Z,33.60
2018-12-17T21:16:35.313Z,32.57
2018-12-17T21:19:03.943Z,30.57
2018-12-17T21:21:32.510Z,37.17
2018-12-17T21:24:01.194Z,34.37
2018-12-17T21:26:29.734Z,30.83
2018-12-17T21:28:58.351Z,38.03
2018-12-17T21:31:26.887Z,36.40
2018-12-17T21:33:55.401Z,37.43
2018-12-17T21:36:23.890Z,29.97
2018-12-17T21:38:52.439Z,29.33
2018-12-17T21:41:21.026Z,24.77
2018-12-17T21:43:49.635Z,28.83
2018-12-17T21:46:19.343Z,29.83
2018-12-17T21:48:48.035Z,28.33
2018-12-17T21:51:16.733Z,27.00
2018-12-17T21:53:45.283Z,34.73
2018-12-17T21:56:14.007Z,31.87
2018-12-17T21:58:42.534Z,32.30
2018-12-17T22:01:11.095Z,32.40
2018-12-17T22:03:39.674Z,29.93
2018-12-17T22:06:08.446Z,34.03
2018-12-17T22:08:36.982Z,32.30
2018-12-17T22:11:05.667Z,32.67
2018-12-17T22:13:34.288Z,30.27
2018-12-17T22:16:02.784Z,33.60
2018-12-17T22:18:31.312Z,31.20
2018-12-17T22:20:59.864Z,30.13
2018-12-17T22:23:28.444Z,27.57
2018-12-17T22:25:57.042Z,33.00
2018-12-17T22:28:25.558Z,27.20
2018-12-17T22:30:54.079Z,31.97
2018-12-17T22:33:22.695Z,29.50
2018-12-17T22:35:51.272Z,29.20
2018-12-17T22:38:19.763Z,29.53
2018-12-17T22:40:48.306Z,27.93
2018-12-17T22:43:16.981Z,33.03
2018-12-17T22:45:45.469Z,27.47
2018-12-17T22:48:14.068Z,25.60
2018-12-17T22:50:42.632Z,31.07
2018-12-17T22:53:11.173Z,27.70
2018-12-17T22:55:39.717Z,30.40
2018-12-17T22:58:08.262Z,30.00
2018-12-17T23:00:36.970Z,33.40
2018-12-17T23:03:05.674Z,28.27
2018-12-17T23:05:34.491Z,33.53
2018-12-17T23:08:03.042Z,30.10
2018-12-17T23:10:45.341Z,35.53
2018-12-17T23:13:25.051Z,35.47
2018-12-17T23:16:04.837Z,29.20
2018-12-17T23:18:32.311Z,31.40
2018-12-17T23:21:01.081Z,31.67
2018-12-17T23:23:29.602Z,30.57
2018-12-17T23:25:58.165Z,30.20
2018-12-17T23:28:26.731Z,34.90
2018-12-17T23:30:55.376Z,32.80
2018-12-17T23:33:23.925Z,31.10
2018-12-17T23:35:52.457Z,30.10
2018-12-17T23:38:21.041Z,34.70
2018-12-17T23:40:49.667Z,28.83
2018-12-17T23:43:18.317Z,26.07
2018-12-17T23:45:46.972Z,27.00
2018-12-17T23:48:15.510Z,30.37
2018-12-17T23:50:44.371Z,27.70
2018-12-17T23:53:12.978Z,24.53
2018-12-17T23:55:41.508Z,23.37
2018-12-17T23:58:10.070Z,23.10
